createdAt,value
2022-12-16T00:01:35.833Z,20.37
2022-12-16T00:04:03.167Z,22.57
2022-12-16T00:06:34.227Z,23.17
2022-12-16T00:09:01.505Z,24.23
2022-12-16T00:11:32.211Z,22.50
2022-12-16T00:13:59.615Z,23.03
2022-12-16T00:16:26.864Z,22.87
2022-12-16T00:18:54.467Z,23.20
2022-12-16T00:21:23.253Z,21.30
2022-12-16T00:23:50.392Z,22.63
2022-12-16T00:26:17.573Z,23.30
2022-12-16T00:28:44.707Z,22.40
2022-12-16T00:31:12.459Z,22.70
2022-12-16T00:33:39.931Z,21.00
2022-12-16T00:36:07.323Z,22.03
2022-12-16T00:38:35.542Z,21.97
2022-12-16T00:41:03.341Z,21.60
2022-12-16T00:43:31.257Z,20.83
2022-12-16T00:45:58.852Z,20.97
2022-12-16T00:48:28.377Z,19.10
2022-12-16T00:50:56.301Z,20.43
2022-12-16T00:53:24.513Z,21.07
2022-12-16T00:55:52.447Z,19.43
2022-12-16T00:58:21.148Z,20.53
2022-12-16T01:00:48.669Z,21.37
2022-12-16T01:03:21.289Z,20.90
2022-12-16T01:05:49.289Z,20.90
2022-12-16T01:08:16.476Z,20.77
2022-12-16T01:10:43.884Z,19.50
2022-12-16T01:13:11.097Z,20.03
2022-12-16T01:15:38.825Z,20.60
2022-12-16T01:18:06.055Z,19.60
2022-12-16T01:20:34.877Z,21.10
2022-12-16T01:23:02.070Z,19.93
2022-12-16T01:25:29.656Z,18.87
2022-12-16T01:27:56.776Z,20.60
2022-12-16T01:30:24.733Z,18.60
2022-12-16T01:32:53.823Z,20.27
2022-12-16T01:35:51.517Z,19.80
2022-12-16T01:38:10.915Z,20.77
2022-12-16T01:40:38.152Z,18.77
2022-12-16T01:43:11.178Z,19.77
2022-12-16T01:45:38.730Z,20.10
2022-12-16T01:48:24.471Z,21.03
2022-12-16T01:50:53.488Z,19.10
2022-12-16T01:53:20.716Z,20.03
2022-12-16T01:55:49.813Z,19.50
2022-12-16T01:58:23.965Z,20.03
2022-12-16T02:00:51.520Z,21.20
2022-12-16T02:03:21.448Z,19.87
2022-12-16T02:05:49.356Z,19.17
2022-12-16T02:08:17.955Z,20.33
2022-12-16T02:10:45.422Z,19.50
2022-12-16T02:13:18.634Z,20.30
2022-12-16T02:15:48.420Z,19.50
2022-12-16T02:18:24.004Z,19.53
2022-12-16T02:21:06.223Z,19.83
2022-12-16T02:23:39.454Z,20.43
2022-12-16T02:26:25.348Z,21.03
2022-12-16T02:29:04.772Z,19.43
2022-12-16T02:31:38.306Z,19.97
2022-12-16T02:34:22.033Z,20.17
2022-12-16T02:37:01.524Z,20.87
2022-12-16T02:39:33.630Z,21.43
2022-12-16T02:42:31.253Z,18.83
2022-12-16T02:45:08.292Z,17.87
2022-12-16T02:47:39.652Z,20.93
2022-12-16T02:50:29.891Z,20.37
2022-12-16T02:53:09.977Z,19.90
2022-12-16T02:55:55.918Z,20.70
2022-12-16T02:58:33.607Z,20.07
2022-12-16T03:01:14.804Z,20.13
2022-12-16T03:03:57.776Z,19.47
2022-12-16T03:06:27.668Z,19.03
2022-12-16T03:09:06.060Z,19.83
2022-12-16T03:11:37.436Z,21.20
2022-12-16T03:14:12.498Z,20.50
2022-12-16T03:16:42.556Z,20.63
2022-12-16T03:19:12.552Z,19.33
2022-12-16T03:21:47.268Z,20.03
2022-12-16T03:24:17.659Z,19.20
2022-12-16T03:26:54.877Z,17.93
2022-12-16T03:29:32.834Z,19.27
2022-12-16T03:32:05.440Z,21.03
2022-12-16T03:34:38.641Z,19.90
2022-12-16T03:37:14.919Z,18.60
2022-12-16T03:40:01.132Z,19.93
2022-12-16T03:42:38.468Z,20.63
2022-12-16T03:45:17.000Z,21.83
2022-12-16T03:47:49.672Z,20.27
2022-12-16T03:50:19.472Z,18.87
2022-12-16T03:52:50.931Z,18.97
2022-12-16T03:55:22.617Z,19.33
2022-12-16T03:57:56.665Z,19.00
2022-12-16T04:00:27.945Z,20.80
2022-12-16T04:02:59.812Z,20.40
2022-12-16T04:05:28.780Z,19.30
2022-12-16T04:08:01.780Z,20.97
2022-12-16T04:10:49.082Z,18.43
2022-12-16T04:13:37.944Z,19.17
2022-12-16T04:16:26.326Z,19.47
2022-12-16T04:19:14.164Z,18.57
2022-12-16T04:22:02.256Z,18.97
2022-12-16T04:24:32.099Z,20.50
2022-12-16T04:27:20.710Z,19.30
2022-12-16T04:30:08.788Z,18.10
2022-12-16T04:33:01.398Z,19.17
2022-12-16T04:36:03.167Z,19.00
2022-12-16T04:38:50.733Z,19.40
2022-12-16T04:41:39.946Z,19.97
2022-12-16T04:44:35.889Z,18.57
2022-12-16T04:47:22.218Z,19.10
2022-12-16T04:50:08.213Z,19.57
2022-12-16T04:52:54.205Z,19.40
2022-12-16T04:55:40.010Z,18.97
2022-12-16T04:58:26.045Z,18.13
2022-12-16T05:01:12.098Z,18.10
2022-12-16T05:03:57.900Z,19.13
2022-12-16T05:06:43.763Z,18.80
2022-12-16T05:09:29.585Z,19.73
2022-12-16T05:12:15.689Z,18.93
2022-12-16T05:15:01.298Z,21.07
2022-12-16T05:17:51.721Z,18.87
2022-12-16T05:20:37.626Z,18.23
2022-12-16T05:23:23.801Z,18.33
2022-12-16T05:26:09.455Z,19.47
2022-12-16T05:28:55.089Z,18.37
2022-12-16T05:31:41.047Z,18.77
2022-12-16T05:34:27.513Z,18.17
2022-12-16T05:37:13.625Z,19.67
2022-12-16T05:39:59.415Z,20.33
2022-12-16T05:42:45.331Z,18.83
2022-12-16T05:45:31.270Z,18.37
2022-12-16T05:48:16.957Z,17.40
2022-12-16T05:51:02.967Z,18.07
2022-12-16T05:53:56.628Z,18.90
2022-12-16T05:56:56.195Z,19.17
2022-12-16T05:59:42.034Z,18.23
2022-12-16T06:02:27.934Z,19.17
2022-12-16T06:05:13.768Z,18.43
2022-12-16T06:07:59.580Z,18.47
2022-12-16T06:10:45.472Z,17.73
2022-12-16T06:13:31.758Z,17.73
2022-12-16T06:16:18.031Z,18.47
2022-12-16T06:19:03.832Z,17.60
2022-12-16T06:21:57.309Z,20.77
2022-12-16T06:24:43.149Z,17.87
2022-12-16T06:27:29.248Z,19.47
2022-12-16T06:30:15.370Z,18.50
2022-12-16T06:33:01.885Z,20.00
2022-12-16T06:35:47.798Z,18.77
2022-12-16T06:38:34.149Z,18.27
2022-12-16T06:41:19.837Z,18.90
2022-12-16T06:44:05.588Z,19.03
2022-12-16T06:46:51.433Z,18.80
2022-12-16T06:49:37.108Z,17.23
2022-12-16T06:52:23.210Z,18.20
2022-12-16T06:55:08.991Z,19.73
2022-12-16T06:57:55.026Z,18.47
2022-12-16T07:00:41.024Z,18.37
2022-12-16T07:03:27.540Z,18.20
2022-12-16T07:06:15.627Z,19.77
2022-12-16T07:09:01.317Z,21.43
2022-12-16T07:11:47.311Z,21.47
2022-12-16T07:14:33.197Z,20.37
2022-12-16T07:17:19.239Z,18.50
2022-12-16T07:20:05.116Z,20.20
2022-12-16T07:23:01.083Z,20.33
2022-12-16T07:25:50.304Z,20.17
2022-12-16T07:28:35.882Z,18.97
2022-12-16T07:31:21.904Z,18.93
2022-12-16T07:34:07.772Z,19.90
2022-12-16T07:36:53.848Z,19.30
2022-12-16T07:39:39.944Z,18.07
2022-12-16T07:42:26.049Z,18.50
2022-12-16T07:45:11.915Z,19.27
2022-12-16T07:47:57.551Z,18.30
2022-12-16T07:50:43.705Z,19.27
2022-12-16T07:53:31.501Z,20.30
2022-12-16T07:56:25.219Z,19.33
2022-12-16T07:59:11.426Z,17.87
2022-12-16T08:01:57.582Z,19.57
2022-12-16T08:04:43.848Z,17.87
2022-12-16T08:07:29.949Z,19.67
2022-12-16T08:10:15.722Z,18.63
2022-12-16T08:13:01.716Z,20.67
2022-12-16T08:15:47.785Z,19.27
2022-12-16T08:18:33.884Z,19.73
2022-12-16T08:21:19.686Z,19.63
2022-12-16T08:24:06.170Z,19.20
2022-12-16T08:26:51.676Z,19.63
2022-12-16T08:29:46.047Z,19.23
2022-12-16T08:32:35.621Z,19.30
2022-12-16T08:35:21.411Z,17.83
2022-12-16T08:38:13.574Z,20.60
2022-12-16T08:41:00.471Z,20.30
2022-12-16T08:43:46.360Z,19.27
2022-12-16T08:46:32.323Z,20.07
2022-12-16T08:49:18.461Z,20.63
2022-12-16T08:52:04.249Z,20.63
2022-12-16T08:54:50.239Z,19.47
2022-12-16T08:57:35.912Z,21.37
2022-12-16T09:00:21.918Z,19.67
2022-12-16T09:03:08.320Z,19.87
2022-12-16T09:05:54.506Z,21.13
2022-12-16T09:08:40.666Z,19.73
2022-12-16T09:11:26.498Z,21.07
2022-12-16T09:14:12.485Z,20.43
2022-12-16T09:16:58.376Z,20.43
2022-12-16T09:19:44.577Z,19.93
2022-12-16T09:22:30.196Z,20.13
2022-12-16T09:25:16.459Z,20.27
2022-12-16T09:28:02.053Z,20.73
2022-12-16T09:30:48.086Z,20.43
2022-12-16T09:33:34.490Z,20.70
2022-12-16T09:36:20.329Z,20.13
2022-12-16T09:39:06.465Z,21.77
2022-12-16T09:41:52.537Z,21.33
2022-12-16T09:44:41.485Z,20.07
2022-12-16T09:47:27.851Z,20.63
2022-12-16T09:50:14.506Z,22.33
2022-12-16T09:53:03.370Z,22.60
2022-12-16T09:55:51.399Z,21.03
2022-12-16T09:58:39.132Z,22.23
2022-12-16T10:01:26.009Z,23.63
2022-12-16T10:04:11.869Z,21.33
2022-12-16T10:07:07.989Z,23.17
2022-12-16T10:09:56.663Z,23.07
2022-12-16T10:12:49.520Z,22.57
2022-12-16T10:15:58.253Z,21.83
2022-12-16T10:18:55.753Z,24.17
2022-12-16T10:21:46.806Z,23.33
2022-12-16T10:24:44.552Z,23.23
2022-12-16T10:27:34.962Z,24.57
2022-12-16T10:30:22.611Z,24.00
2022-12-16T10:33:09.752Z,23.23
2022-12-16T10:35:55.700Z,25.70
2022-12-16T10:38:41.788Z,24.63
2022-12-16T10:41:28.506Z,24.07
2022-12-16T10:44:14.815Z,24.43
2022-12-16T10:47:00.872Z,25.03
2022-12-16T10:49:52.327Z,25.40
2022-12-16T10:52:40.363Z,24.00
2022-12-16T10:55:40.281Z,25.97
2022-12-16T10:58:26.080Z,26.50
2022-12-16T11:01:12.365Z,25.37
2022-12-16T11:03:58.987Z,25.83
2022-12-16T11:06:46.304Z,23.20
2022-12-16T11:09:39.868Z,25.27
2022-12-16T11:12:44.109Z,26.33
2022-12-16T11:15:42.542Z,27.13
2022-12-16T11:18:34.436Z,25.33
2022-12-16T11:21:39.228Z,26.20
2022-12-16T11:24:33.255Z,24.93
2022-12-16T11:27:26.693Z,27.23
2022-12-16T11:30:24.478Z,24.20
2022-12-16T11:33:15.030Z,26.73
2022-12-16T11:36:02.905Z,26.67
2022-12-16T11:38:56.178Z,28.10
2022-12-16T11:41:43.885Z,28.03
2022-12-16T11:44:33.402Z,27.10
2022-12-16T11:47:19.229Z,28.67
2022-12-16T11:50:05.062Z,27.30
2022-12-16T11:52:51.429Z,27.37
2022-12-16T11:56:04.825Z,27.60
2022-12-16T11:58:55.477Z,28.57
2022-12-16T12:01:45.778Z,28.97
2022-12-16T12:04:32.286Z,28.40
2022-12-16T12:07:27.656Z,28.20
2022-12-16T12:10:17.515Z,26.97
2022-12-16T12:13:15.650Z,25.67
2022-12-16T12:16:09.215Z,27.53
2022-12-16T12:19:10.393Z,27.43
2022-12-16T12:22:08.469Z,26.63
2022-12-16T12:25:00.556Z,25.87
2022-12-16T12:28:06.994Z,27.00
2022-12-16T12:30:57.324Z,25.97
2022-12-16T12:34:21.914Z,27.00
2022-12-16T12:37:11.204Z,24.93
2022-12-16T12:40:02.850Z,26.63
2022-12-16T12:42:49.703Z,27.43
2022-12-16T12:45:47.493Z,25.70
2022-12-16T12:48:33.272Z,25.37
2022-12-16T12:51:45.031Z,28.10
2022-12-16T12:54:39.660Z,26.20
2022-12-16T12:57:25.821Z,25.57
2022-12-16T13:00:17.850Z,25.03
2022-12-16T13:03:19.597Z,25.67
2022-12-16T13:06:05.985Z,25.90
2022-12-16T13:08:51.958Z,25.93
2022-12-16T13:11:37.662Z,26.83
2022-12-16T13:14:43.572Z,24.60
2022-12-16T13:17:29.551Z,25.00
2022-12-16T13:20:16.189Z,25.30
2022-12-16T13:23:03.504Z,22.13
2022-12-16T13:25:52.451Z,24.30
2022-12-16T13:28:46.215Z,22.83
2022-12-16T13:31:32.395Z,23.40
2022-12-16T13:34:32.439Z,23.30
2022-12-16T13:37:25.770Z,22.20
2022-12-16T13:40:20.731Z,23.80
2022-12-16T13:43:06.398Z,24.00
2022-12-16T13:45:54.204Z,23.57
2022-12-16T13:48:47.613Z,24.00
2022-12-16T13:51:52.137Z,23.17
2022-12-16T13:54:37.990Z,21.20
2022-12-16T13:57:24.419Z,23.23
2022-12-16T14:00:10.790Z,21.93
2022-12-16T14:02:58.727Z,25.10
2022-12-16T14:05:48.451Z,24.77
2022-12-16T14:08:39.230Z,24.67
2022-12-16T14:11:27.126Z,23.87
2022-12-16T14:14:18.326Z,24.20
2022-12-16T14:17:11.729Z,23.47
2022-12-16T14:20:15.758Z,23.53
2022-12-16T14:23:47.342Z,22.63
2022-12-16T14:26:24.563Z,22.47
2022-12-16T14:29:11.078Z,23.37
2022-12-16T14:31:58.556Z,24.80
2022-12-16T14:34:44.302Z,25.30
2022-12-16T14:37:33.166Z,24.80
2022-12-16T14:40:18.855Z,25.07
2022-12-16T14:43:08.338Z,27.17
2022-12-16T14:45:56.154Z,23.57
2022-12-16T14:48:47.645Z,24.53
2022-12-16T14:51:46.110Z,24.77
2022-12-16T14:54:42.818Z,24.57
2022-12-16T14:57:36.565Z,25.10
2022-12-16T15:00:27.985Z,23.00
2022-12-16T15:03:15.337Z,24.00
2022-12-16T15:06:01.735Z,25.77
2022-12-16T15:08:49.036Z,24.90
2022-12-16T15:11:37.705Z,27.30
2022-12-16T15:14:23.788Z,24.33
2022-12-16T15:17:10.200Z,25.40
2022-12-16T15:20:05.031Z,23.60
2022-12-16T15:22:51.263Z,25.03
2022-12-16T15:25:41.530Z,27.47
2022-12-16T15:28:43.635Z,24.60
2022-12-16T15:31:32.999Z,35.67
2022-12-16T15:34:51.101Z,33.70
2022-12-16T15:37:38.776Z,27.83
2022-12-16T15:40:25.802Z,28.67
2022-12-16T15:43:16.278Z,26.50
2022-12-16T15:46:07.258Z,24.80
2022-12-16T15:48:53.918Z,26.73
2022-12-16T15:51:49.930Z,27.07
2022-12-16T15:54:40.544Z,27.47
2022-12-16T15:57:45.168Z,26.83
2022-12-16T16:00:38.329Z,28.03
2022-12-16T16:03:24.035Z,30.20
2022-12-16T16:06:09.845Z,30.90
2022-12-16T16:08:55.741Z,30.90
2022-12-16T16:11:41.599Z,29.70
2022-12-16T16:14:27.497Z,28.90
2022-12-16T16:17:21.094Z,28.30
2022-12-16T16:20:07.185Z,28.27
2022-12-16T16:22:53.088Z,32.03
2022-12-16T16:25:38.942Z,31.60
2022-12-16T16:28:24.814Z,34.60
2022-12-16T16:31:10.695Z,36.00
2022-12-16T16:33:56.743Z,35.40
2022-12-16T16:36:42.397Z,36.70
2022-12-16T16:39:28.388Z,36.87
2022-12-16T16:42:14.463Z,37.53
2022-12-16T16:45:00.167Z,37.27
2022-12-16T16:47:46.238Z,42.33
2022-12-16T16:50:34.380Z,39.00
2022-12-16T16:53:20.207Z,37.93
2022-12-16T16:56:06.097Z,36.87
2022-12-16T16:58:53.462Z,36.23
2022-12-16T17:01:39.199Z,35.50
2022-12-16T17:04:25.448Z,32.93
2022-12-16T17:07:11.530Z,31.93
2022-12-16T17:09:57.240Z,32.43
2022-12-16T17:12:44.699Z,30.13
2022-12-16T17:15:43.839Z,30.53
2022-12-16T17:18:29.734Z,30.20
2022-12-16T17:21:15.657Z,27.83
2022-12-16T17:24:01.184Z,29.53
2022-12-16T17:26:47.270Z,29.10
2022-12-16T17:29:43.245Z,28.93
2022-12-16T17:32:29.137Z,28.83
2022-12-16T17:35:14.973Z,30.17
2022-12-16T17:38:01.030Z,30.50
2022-12-16T17:40:46.629Z,28.37
2022-12-16T17:43:33.175Z,30.47
2022-12-16T17:46:20.121Z,29.17
2022-12-16T17:49:10.050Z,31.07
2022-12-16T17:51:55.757Z,29.50
2022-12-16T17:54:41.743Z,29.90
2022-12-16T17:57:27.366Z,28.43
2022-12-16T18:00:13.175Z,29.23
2022-12-16T18:02:59.298Z,30.77
2022-12-16T18:05:45.251Z,29.70
2022-12-16T18:08:35.265Z,32.00
2022-12-16T18:11:38.742Z,31.67
2022-12-16T18:14:25.206Z,29.63
2022-12-16T18:17:10.853Z,30.47
2022-12-16T18:19:56.710Z,30.67
2022-12-16T18:22:42.835Z,30.47
2022-12-16T18:25:28.719Z,31.30
2022-12-16T18:28:14.689Z,31.47
2022-12-16T18:31:00.777Z,31.20
2022-12-16T18:33:46.427Z,30.50
2022-12-16T18:36:32.044Z,31.60
2022-12-16T18:39:17.877Z,31.50
2022-12-16T18:42:04.593Z,29.93
2022-12-16T18:44:52.882Z,29.40
2022-12-16T18:47:42.172Z,28.30
2022-12-16T18:50:32.755Z,33.30
2022-12-16T18:53:21.495Z,30.10
2022-12-16T18:56:07.462Z,27.37
2022-12-16T18:58:56.145Z,26.17
2022-12-16T19:01:42.813Z,26.23
2022-12-16T19:04:28.581Z,27.17
2022-12-16T19:07:14.435Z,25.30
2022-12-16T19:10:20.153Z,24.23
2022-12-16T19:13:05.715Z,27.73
2022-12-16T19:15:51.420Z,28.33
2022-12-16T19:18:37.644Z,27.30
2022-12-16T19:21:23.672Z,27.80
2022-12-16T19:24:09.373Z,30.87
2022-12-16T19:26:56.683Z,33.87
2022-12-16T19:29:43.034Z,33.37
2022-12-16T19:32:28.973Z,40.20
2022-12-16T19:35:14.846Z,34.43
2022-12-16T19:38:00.636Z,35.30
2022-12-16T19:40:46.657Z,35.20
2022-12-16T19:43:32.409Z,29.47
2022-12-16T19:46:35.209Z,29.07
2022-12-16T19:49:20.736Z,28.30
2022-12-16T19:52:06.648Z,27.73
2022-12-16T19:54:54.808Z,29.03
2022-12-16T19:57:41.988Z,28.13
2022-12-16T20:00:29.365Z,28.53
2022-12-16T20:03:15.559Z,29.67
2022-12-16T20:06:01.263Z,28.27
2022-12-16T20:08:46.967Z,29.13
2022-12-16T20:11:33.302Z,30.10
2022-12-16T20:14:20.414Z,31.37
2022-12-16T20:17:06.178Z,30.77
2022-12-16T20:19:52.001Z,29.63
2022-12-16T20:22:37.847Z,29.03
2022-12-16T20:25:24.202Z,31.17
2022-12-16T20:28:10.136Z,30.03
2022-12-16T20:30:56.159Z,29.00
2022-12-16T20:33:42.831Z,31.63
2022-12-16T20:36:28.912Z,35.80
2022-12-16T20:39:14.981Z,33.70
2022-12-16T20:42:01.273Z,34.13
2022-12-16T20:44:47.234Z,32.27
2022-12-16T20:47:32.764Z,26.30
2022-12-16T20:50:18.570Z,26.33
2022-12-16T20:53:04.602Z,26.27
2022-12-16T20:55:50.428Z,28.87
2022-12-16T20:58:38.849Z,27.07
2022-12-16T21:01:25.345Z,27.03
2022-12-16T21:04:11.315Z,27.43
2022-12-16T21:06:57.320Z,27.27
2022-12-16T21:09:42.997Z,27.00
2022-12-16T21:12:29.063Z,29.43
2022-12-16T21:15:34.652Z,26.80
2022-12-16T21:18:20.815Z,28.67
2022-12-16T21:21:13.309Z,28.03
2022-12-16T21:23:59.268Z,29.93
2022-12-16T21:26:45.642Z,31.40
2022-12-16T21:29:31.522Z,32.60
2022-12-16T21:32:17.675Z,32.37
2022-12-16T21:35:03.495Z,33.20
2022-12-16T21:37:49.342Z,35.23
2022-12-16T21:40:35.276Z,33.17
2022-12-16T21:43:21.419Z,33.07
2022-12-16T21:46:13.706Z,34.17
2022-12-16T21:48:59.611Z,40.03
2022-12-16T21:51:45.478Z,40.73
2022-12-16T21:54:31.354Z,45.63
2022-12-16T21:57:17.291Z,48.00
2022-12-16T22:00:02.971Z,43.47
2022-12-16T22:02:48.964Z,41.87
2022-12-16T22:05:34.846Z,41.37
2022-12-16T22:08:24.864Z,41.23
2022-12-16T22:11:10.455Z,45.20
2022-12-16T22:13:56.285Z,43.60
2022-12-16T22:16:42.172Z,44.43
2022-12-16T22:19:28.076Z,40.07
2022-12-16T22:22:13.604Z,39.90
2022-12-16T22:24:59.641Z,38.20
2022-12-16T22:27:45.951Z,38.30
2022-12-16T22:30:31.743Z,37.00
2022-12-16T22:33:17.427Z,31.83
2022-12-16T22:36:03.424Z,31.47
2022-12-16T22:38:56.412Z,29.80
2022-12-16T22:41:42.159Z,31.90
2022-12-16T22:44:28.562Z,33.30
2022-12-16T22:47:14.675Z,34.27
2022-12-16T22:50:00.269Z,28.67
2022-12-16T22:52:46.350Z,28.03
2022-12-16T22:55:32.613Z,28.77
2022-12-16T22:58:18.179Z,27.77
2022-12-16T23:01:04.099Z,28.03
2022-12-16T23:03:49.916Z,27.93
2022-12-16T23:06:35.781Z,29.07
2022-12-16T23:09:21.704Z,29.53
2022-12-16T23:12:07.597Z,29.43
2022-12-16T23:14:53.372Z,28.70
2022-12-16T23:17:39.013Z,29.43
2022-12-16T23:20:24.977Z,29.10
2022-12-16T23:23:13.114Z,27.57
2022-12-16T23:25:59.039Z,28.03
2022-12-16T23:28:44.842Z,30.57
2022-12-16T23:31:30.788Z,30.43
2022-12-16T23:34:16.822Z,29.27
2022-12-16T23:37:02.742Z,31.87
2022-12-16T23:39:48.472Z,30.73
2022-12-16T23:42:34.431Z,31.17
2022-12-16T23:45:20.265Z,28.67
2022-12-16T23:48:06.160Z,30.70
2022-12-16T23:50:52.114Z,31.77
2022-12-16T23:53:38.625Z,29.90
2022-12-16T23:56:24.634Z,30.50
2022-12-16T23:59:10.612Z,31.27
